createdAt,value
2023-05-05T00:02:19.447Z,94.76
2023-05-05T00:05:24.088Z,94.34
2023-05-05T00:08:27.149Z,94.81
2023-05-05T00:11:30.071Z,94.44
2023-05-05T00:14:33.476Z,94.14
2023-05-05T00:17:36.526Z,93.96
2023-05-05T00:20:39.341Z,94.52
2023-05-05T00:23:42.445Z,94.16
2023-05-05T00:26:45.287Z,93.21
2023-05-05T00:29:48.280Z,93.67
2023-05-05T00:32:51.621Z,94.33
2023-05-05T00:35:54.620Z,94.68
2023-05-05T00:39:04.943Z,94.39
2023-05-05T00:42:12.993Z,94.41
2023-05-05T00:45:15.926Z,94.52
2023-05-05T00:48:19.628Z,94.37
2023-05-05T00:51:28.357Z,94.89
2023-05-05T00:54:31.620Z,95.02
2023-05-05T00:57:45.778Z,94.81
2023-05-05T01:00:48.900Z,94.85
2023-05-05T01:03:51.800Z,94.71
2023-05-05T01:07:33.158Z,94.66
2023-05-05T01:10:44.370Z,95.25
2023-05-05T01:13:56.840Z,94.77
2023-05-05T01:17:02.746Z,95.75
2023-05-05T01:20:11.359Z,95.51
2023-05-05T01:23:28.487Z,95.67
2023-05-05T01:26:42.882Z,94.25
2023-05-05T01:30:13.458Z,94.86
2023-05-05T01:33:23.363Z,95.10
2023-05-05T01:36:55.854Z,94.53
2023-05-05T01:40:05.270Z,95.21
2023-05-05T01:43:10.548Z,95.04
2023-05-05T01:46:28.328Z,94.98
2023-05-05T01:49:33.340Z,94.77
2023-05-05T01:52:41.258Z,95.74
2023-05-05T01:55:49.526Z,95.91
2023-05-05T01:59:47.086Z,96.05
2023-05-05T02:02:28.856Z,95.91
2023-05-05T02:05:33.749Z,96.02
2023-05-05T02:08:38.065Z,95.39
2023-05-05T02:11:41.884Z,95.24
2023-05-05T02:14:46.440Z,95.48
2023-05-05T02:17:54.409Z,95.79
2023-05-05T02:20:57.729Z,95.86
2023-05-05T02:24:01.438Z,95.55
2023-05-05T02:27:07.507Z,95.45
2023-05-05T02:30:15.994Z,95.18
2023-05-05T02:33:21.465Z,95.99
2023-05-05T02:36:29.152Z,96.97
2023-05-05T02:39:38.407Z,97.91
2023-05-05T02:42:48.142Z,97.04
2023-05-05T02:45:51.151Z,96.83
2023-05-05T02:48:55.133Z,96.92
2023-05-05T02:51:58.148Z,96.67
2023-05-05T02:55:02.982Z,96.31
2023-05-05T02:58:08.663Z,96.43
2023-05-05T03:01:25.759Z,96.36
2023-05-05T03:04:38.554Z,96.42
2023-05-05T03:07:51.552Z,96.67
2023-05-05T03:11:05.131Z,96.74
2023-05-05T03:14:17.340Z,96.57
2023-05-05T03:17:22.635Z,97.94
2023-05-05T03:20:26.817Z,97.27
2023-05-05T03:23:32.681Z,97.05
2023-05-05T03:26:35.802Z,97.81
2023-05-05T03:29:38.620Z,97.47
2023-05-05T03:32:42.989Z,97.60
2023-05-05T03:35:46.032Z,97.02
2023-05-05T03:38:49.704Z,96.65
2023-05-05T03:41:53.937Z,96.39
2023-05-05T03:44:57.451Z,95.73
2023-05-05T03:48:00.965Z,95.53
2023-05-05T03:51:04.702Z,95.67
2023-05-05T03:54:08.451Z,95.60
2023-05-05T03:57:11.830Z,95.44
2023-05-05T04:00:15.352Z,95.61
2023-05-05T04:03:20.068Z,95.58
2023-05-05T04:06:23.512Z,95.13
2023-05-05T04:09:26.796Z,94.92
2023-05-05T04:12:29.910Z,96.19
2023-05-05T04:15:33.178Z,96.35
2023-05-05T04:18:37.021Z,95.69
2023-05-05T04:21:40.375Z,95.64
2023-05-05T04:24:43.375Z,95.05
2023-05-05T04:28:43.134Z,94.58
2023-05-05T04:31:46.539Z,94.09
2023-05-05T04:34:50.664Z,94.37
2023-05-05T04:37:54.877Z,93.61
2023-05-05T04:40:58.021Z,93.78
2023-05-05T04:44:00.974Z,93.28
2023-05-05T04:47:04.385Z,93.55
2023-05-05T04:50:08.452Z,93.11
2023-05-05T04:53:11.916Z,92.51
2023-05-05T04:56:14.896Z,92.68
2023-05-05T04:59:17.982Z,93.21
2023-05-05T05:02:20.785Z,91.70
2023-05-05T05:05:25.362Z,91.94
2023-05-05T05:08:28.143Z,91.24
2023-05-05T05:11:31.247Z,93.72
2023-05-05T05:14:40.573Z,92.70
2023-05-05T05:17:43.597Z,94.49
2023-05-05T05:20:46.535Z,96.60
2023-05-05T05:23:50.212Z,95.08
2023-05-05T05:26:53.065Z,93.26
2023-05-05T05:29:56.202Z,93.92
2023-05-05T05:32:59.971Z,91.76
2023-05-05T05:36:03.648Z,91.99
2023-05-05T05:39:06.883Z,91.64
2023-05-05T05:42:10.151Z,89.94
2023-05-05T05:45:13.467Z,89.52
2023-05-05T05:48:18.685Z,89.00
2023-05-05T05:51:21.544Z,87.43
2023-05-05T05:54:25.331Z,85.89
2023-05-05T05:57:28.188Z,85.67
2023-05-05T06:00:31.546Z,83.87
2023-05-05T06:03:35.292Z,84.28
2023-05-05T06:06:38.284Z,75.66
2023-05-05T06:09:41.631Z,79.25
2023-05-05T06:12:45.296Z,80.42
2023-05-05T06:15:48.654Z,81.00
2023-05-05T06:18:52.180Z,80.05
2023-05-05T06:21:55.458Z,78.99
2023-05-05T06:24:58.580Z,78.92
2023-05-05T06:28:02.328Z,78.34
2023-05-05T06:31:05.740Z,78.00
2023-05-05T06:34:09.287Z,77.66
2023-05-05T06:37:12.578Z,76.71
2023-05-05T06:40:15.996Z,76.11
2023-05-05T06:43:19.041Z,75.51
2023-05-05T06:46:22.727Z,74.26
2023-05-05T06:49:25.881Z,72.15
2023-05-05T06:52:29.346Z,72.85
2023-05-05T06:55:32.544Z,73.16
2023-05-05T06:58:36.302Z,73.75
2023-05-05T07:01:39.410Z,73.39
2023-05-05T07:04:44.005Z,72.34
2023-05-05T07:07:54.737Z,72.55
2023-05-05T07:10:57.983Z,72.48
2023-05-05T07:14:01.259Z,72.53
2023-05-05T07:17:04.309Z,72.63
2023-05-05T07:20:11.329Z,71.46
2023-05-05T07:23:14.619Z,70.92
2023-05-05T07:26:17.667Z,70.43
2023-05-05T07:29:20.980Z,69.38
2023-05-05T07:32:24.039Z,68.63
2023-05-05T07:35:27.935Z,67.04
2023-05-05T07:38:30.942Z,66.73
2023-05-05T07:41:34.194Z,66.60
2023-05-05T07:44:37.406Z,65.82
2023-05-05T07:47:40.933Z,65.39
2023-05-05T07:50:43.677Z,64.48
2023-05-05T07:53:46.588Z,62.65
2023-05-05T07:56:49.404Z,62.33
2023-05-05T07:59:52.578Z,60.92
2023-05-05T08:02:55.480Z,62.66
2023-05-05T08:06:08.679Z,60.97
2023-05-05T08:09:11.465Z,59.68
2023-05-05T08:12:15.355Z,59.33
2023-05-05T08:15:18.062Z,58.90
2023-05-05T08:18:21.143Z,59.01
2023-05-05T08:21:24.045Z,59.23
2023-05-05T08:24:27.668Z,59.61
2023-05-05T08:27:31.885Z,60.50
2023-05-05T08:30:35.943Z,60.91
2023-05-05T08:33:38.730Z,61.96
2023-05-05T08:36:41.779Z,62.13
2023-05-05T08:39:44.848Z,61.11
2023-05-05T08:42:47.987Z,62.05
2023-05-05T08:45:51.876Z,62.82
2023-05-05T08:48:59.358Z,60.89
2023-05-05T08:52:05.259Z,60.21
2023-05-05T08:55:24.205Z,58.62
2023-05-05T08:58:37.648Z,56.57
2023-05-05T09:01:42.936Z,55.89
2023-05-05T09:04:45.739Z,55.22
2023-05-05T09:07:49.942Z,53.05
2023-05-05T09:10:52.884Z,54.12
2023-05-05T09:17:25.285Z,52.67
2023-05-05T09:20:36.261Z,52.25
2023-05-05T09:23:38.948Z,52.82
2023-05-05T09:26:45.695Z,51.33
2023-05-05T09:29:49.890Z,51.76
2023-05-05T09:32:56.054Z,51.25
2023-05-05T09:35:59.022Z,50.69
2023-05-05T09:39:06.335Z,50.04
2023-05-05T09:42:18.843Z,50.72
2023-05-05T09:45:23.449Z,51.52
2023-05-05T09:48:31.413Z,53.63
2023-05-05T09:51:34.655Z,53.50
2023-05-05T09:54:37.333Z,53.11
2023-05-05T09:57:40.402Z,52.83
2023-05-05T10:00:43.021Z,53.90
2023-05-05T10:03:54.856Z,53.24
2023-05-05T10:06:58.879Z,53.00
2023-05-05T10:10:07.359Z,51.49
2023-05-05T10:13:11.724Z,52.25
2023-05-05T10:16:15.165Z,52.22
2023-05-05T10:19:20.203Z,51.68
2023-05-05T10:22:24.197Z,52.20
2023-05-05T10:25:33.315Z,52.01
2023-05-05T10:28:55.702Z,52.27
2023-05-05T10:32:16.493Z,52.84
2023-05-05T10:35:27.827Z,53.48
2023-05-05T10:38:31.656Z,53.55
2023-05-05T10:41:35.604Z,53.15
2023-05-05T10:44:38.490Z,53.03
2023-05-05T10:47:44.609Z,53.13
2023-05-05T10:51:24.113Z,53.40
2023-05-05T10:54:56.103Z,53.75
2023-05-05T10:57:59.002Z,53.69
2023-05-05T11:01:03.124Z,54.03
2023-05-05T11:04:23.127Z,53.49
2023-05-05T11:07:27.590Z,52.88
2023-05-05T11:10:44.307Z,54.09
2023-05-05T11:13:47.720Z,53.37
2023-05-05T11:16:50.716Z,53.28
2023-05-05T11:19:53.787Z,50.67
2023-05-05T11:23:02.483Z,49.58
2023-05-05T11:26:05.505Z,47.69
2023-05-05T11:29:08.547Z,47.43
2023-05-05T11:32:13.162Z,46.19
2023-05-05T11:35:16.395Z,45.88
2023-05-05T11:38:23.364Z,45.71
2023-05-05T11:41:57.088Z,45.01
2023-05-05T11:45:00.256Z,45.07
2023-05-05T11:48:24.472Z,46.49
2023-05-05T11:51:28.801Z,44.24
2023-05-05T11:54:32.187Z,43.15
2023-05-05T11:57:35.197Z,44.14
2023-05-05T12:00:37.984Z,43.56
2023-05-05T12:03:41.381Z,42.32
2023-05-05T12:06:45.880Z,43.95
2023-05-05T12:09:50.037Z,45.38
2023-05-05T12:12:55.179Z,45.63
2023-05-05T12:16:13.037Z,46.20
2023-05-05T12:19:16.034Z,45.58
2023-05-05T12:22:25.641Z,46.30
2023-05-05T12:25:34.997Z,46.40
2023-05-05T12:28:47.929Z,46.10
2023-05-05T12:31:51.146Z,46.71
2023-05-05T12:34:57.346Z,46.30
2023-05-05T12:38:00.407Z,46.24
2023-05-05T12:41:03.783Z,46.01
2023-05-05T12:44:06.838Z,46.33
2023-05-05T12:47:11.570Z,46.56
2023-05-05T12:50:14.316Z,47.00
2023-05-05T12:53:24.789Z,46.92
2023-05-05T12:56:36.415Z,47.26
2023-05-05T12:59:39.790Z,47.33
2023-05-05T13:02:42.767Z,47.22
2023-05-05T13:05:45.962Z,47.33
2023-05-05T13:08:48.974Z,47.51
2023-05-05T13:11:53.082Z,47.82
2023-05-05T13:14:55.885Z,47.59
2023-05-05T13:18:03.002Z,47.44
2023-05-05T13:21:05.755Z,47.22
2023-05-05T13:24:23.666Z,46.64
2023-05-05T13:27:31.619Z,44.90
2023-05-05T13:30:34.720Z,43.16
2023-05-05T13:33:37.383Z,43.99
2023-05-05T13:36:40.519Z,44.16
2023-05-05T13:39:43.423Z,44.39
2023-05-05T13:42:46.939Z,42.19
2023-05-05T13:45:49.670Z,41.71
2023-05-05T13:48:56.392Z,40.20
2023-05-05T13:51:59.598Z,39.36
2023-05-05T13:55:02.867Z,39.59
2023-05-05T13:58:05.697Z,40.02
2023-05-05T14:01:08.744Z,39.71
2023-05-05T14:04:11.855Z,39.72
2023-05-05T14:07:14.633Z,39.76
2023-05-05T14:10:17.704Z,39.67
2023-05-05T14:13:20.545Z,38.79
2023-05-05T14:16:23.798Z,38.04
2023-05-05T14:19:26.568Z,38.05
2023-05-05T14:22:29.937Z,38.56
2023-05-05T14:25:32.851Z,37.67
2023-05-05T14:28:36.103Z,38.06
2023-05-05T14:31:38.960Z,39.53
2023-05-05T14:34:42.330Z,38.10
2023-05-05T14:37:45.020Z,38.34
2023-05-05T14:40:48.021Z,37.48
2023-05-05T14:43:50.790Z,37.52
2023-05-05T14:46:53.859Z,37.51
2023-05-05T14:49:56.756Z,37.31
2023-05-05T14:52:59.889Z,36.69
2023-05-05T14:56:03.294Z,36.99
2023-05-05T14:59:06.494Z,37.77
2023-05-05T15:02:09.235Z,37.29
2023-05-05T15:05:12.343Z,37.87
2023-05-05T15:08:15.307Z,37.31
2023-05-05T15:11:18.234Z,36.78
2023-05-05T15:14:21.285Z,36.81
2023-05-05T15:17:24.832Z,36.36
2023-05-05T15:20:27.902Z,36.36
2023-05-05T15:23:30.912Z,36.72
2023-05-05T15:26:33.609Z,36.36
2023-05-05T15:29:36.768Z,36.54
2023-05-05T15:32:42.554Z,36.61
2023-05-05T15:35:45.851Z,37.21
2023-05-05T15:38:49.342Z,36.70
2023-05-05T15:41:52.534Z,36.50
2023-05-05T15:44:55.243Z,36.53
2023-05-05T15:47:58.250Z,36.47
2023-05-05T15:51:01.277Z,37.00
2023-05-05T15:54:04.699Z,37.09
2023-05-05T15:57:07.407Z,37.08
2023-05-05T16:00:17.160Z,37.65
2023-05-05T16:03:20.486Z,37.84
2023-05-05T16:06:23.278Z,37.77
2023-05-05T16:09:26.396Z,37.58
2023-05-05T16:12:29.406Z,37.27
2023-05-05T16:15:32.340Z,37.45
2023-05-05T16:18:35.097Z,38.49
2023-05-05T16:21:38.168Z,37.63
2023-05-05T16:24:43.104Z,38.04
2023-05-05T16:27:47.088Z,38.15
2023-05-05T16:30:49.814Z,39.20
2023-05-05T16:33:52.958Z,38.84
2023-05-05T16:36:56.168Z,39.16
2023-05-05T16:40:00.843Z,38.99
2023-05-05T16:43:04.239Z,39.98
2023-05-05T16:46:07.396Z,40.06
2023-05-05T16:49:10.451Z,40.38
2023-05-05T16:52:13.696Z,41.28
2023-05-05T16:55:16.506Z,40.69
2023-05-05T16:58:20.780Z,40.74
2023-05-05T17:01:24.050Z,41.37
2023-05-05T17:04:27.399Z,42.96
2023-05-05T17:07:30.062Z,43.89
2023-05-05T17:10:33.767Z,44.43
2023-05-05T17:13:36.560Z,44.95
2023-05-05T17:16:39.614Z,45.70
2023-05-05T17:19:42.846Z,46.06
2023-05-05T17:22:46.706Z,46.55
2023-05-05T17:25:49.423Z,46.90
2023-05-05T17:29:01.090Z,47.27
2023-05-05T17:32:04.181Z,48.44
2023-05-05T17:35:08.031Z,49.04
2023-05-05T17:38:11.517Z,50.32
2023-05-05T17:41:14.510Z,51.40
2023-05-05T17:44:23.140Z,51.76
2023-05-05T17:47:27.264Z,52.37
2023-05-05T17:50:30.040Z,53.16
2023-05-05T17:53:33.164Z,53.55
2023-05-05T17:56:36.920Z,54.45
2023-05-05T17:59:39.919Z,54.34
2023-05-05T18:02:42.836Z,55.54
2023-05-05T18:05:45.945Z,56.23
2023-05-05T18:08:49.462Z,57.06
2023-05-05T18:11:54.071Z,57.41
2023-05-05T18:14:57.125Z,57.62
2023-05-05T18:18:00.870Z,58.10
2023-05-05T18:21:04.018Z,58.39
2023-05-05T18:24:19.275Z,58.79
2023-05-05T18:27:22.660Z,59.50
2023-05-05T18:30:25.722Z,61.30
2023-05-05T18:33:28.497Z,62.14
2023-05-05T18:36:31.594Z,61.64
2023-05-05T18:39:34.348Z,62.18
2023-05-05T18:45:51.090Z,62.64
2023-05-05T18:48:54.215Z,63.15
2023-05-05T18:51:57.667Z,64.79
2023-05-05T18:55:34.611Z,64.76
2023-05-05T18:58:51.571Z,65.13
2023-05-05T19:01:54.658Z,65.16
2023-05-05T19:04:57.491Z,65.66
2023-05-05T19:08:00.489Z,67.34
2023-05-05T19:11:03.820Z,67.67
2023-05-05T19:14:06.834Z,67.71
2023-05-05T19:17:09.549Z,68.02
2023-05-05T19:20:12.929Z,68.42
2023-05-05T19:23:15.707Z,68.74
2023-05-05T19:26:19.419Z,69.47
2023-05-05T19:29:22.037Z,69.74
2023-05-05T19:32:25.752Z,71.88
2023-05-05T19:35:29.701Z,70.51
2023-05-05T19:38:33.154Z,70.99
2023-05-05T19:41:35.957Z,71.71
2023-05-05T19:44:39.143Z,72.04
2023-05-05T19:47:41.829Z,72.16
2023-05-05T19:50:44.849Z,73.22
2023-05-05T19:53:47.628Z,72.93
2023-05-05T19:56:52.245Z,72.87
2023-05-05T19:59:55.300Z,74.26
2023-05-05T20:02:58.485Z,73.80
2023-05-05T20:06:01.577Z,73.91
2023-05-05T20:09:04.918Z,74.51
2023-05-05T20:12:08.065Z,74.38
2023-05-05T20:15:11.580Z,75.38
2023-05-05T20:18:14.613Z,76.08
2023-05-05T20:21:17.892Z,75.59
2023-05-05T20:24:20.868Z,75.54
2023-05-05T20:27:24.184Z,75.95
2023-05-05T20:30:28.386Z,75.72
2023-05-05T20:33:31.110Z,76.98
2023-05-05T20:36:34.152Z,77.02
2023-05-05T20:39:36.905Z,76.78
2023-05-05T20:42:39.938Z,76.94
2023-05-05T20:45:43.026Z,77.28
2023-05-05T20:48:46.170Z,77.34
2023-05-05T20:51:49.145Z,77.58
2023-05-05T20:54:52.247Z,77.64
2023-05-05T20:57:54.956Z,78.01
2023-05-05T21:00:58.176Z,77.93
2023-05-05T21:04:01.529Z,78.14
2023-05-05T21:07:04.563Z,78.52
2023-05-05T21:10:08.172Z,79.45
2023-05-05T21:13:11.829Z,79.92
2023-05-05T21:16:14.570Z,80.33
2023-05-05T21:19:17.581Z,80.26
2023-05-05T21:22:21.074Z,79.76
2023-05-05T21:25:24.661Z,80.55
2023-05-05T21:28:27.380Z,79.93
2023-05-05T21:31:30.461Z,79.94
2023-05-05T21:34:33.636Z,81.11
2023-05-05T21:37:39.107Z,80.98
2023-05-05T21:40:42.204Z,80.37
2023-05-05T21:43:45.357Z,80.91
2023-05-05T21:46:48.159Z,81.33
2023-05-05T21:49:51.289Z,81.59
2023-05-05T21:52:54.026Z,81.54
2023-05-05T21:55:57.165Z,81.90
2023-05-05T21:59:00.182Z,81.95
2023-05-05T22:02:03.606Z,82.13
2023-05-05T22:05:07.310Z,82.69
2023-05-05T22:08:10.022Z,82.51
2023-05-05T22:11:13.441Z,83.01
2023-05-05T22:14:16.274Z,82.87
2023-05-05T22:17:19.225Z,83.34
2023-05-05T22:20:21.953Z,83.46
2023-05-05T22:23:25.010Z,83.46
2023-05-05T22:26:27.823Z,83.81
2023-05-05T22:29:30.763Z,84.08
2023-05-05T22:32:33.504Z,84.21
2023-05-05T22:35:37.606Z,84.72
2023-05-05T22:38:40.458Z,84.90
2023-05-05T22:41:43.697Z,84.71
2023-05-05T22:44:46.417Z,85.24
2023-05-05T22:47:49.958Z,85.38
2023-05-05T22:50:52.683Z,86.40
2023-05-05T22:55:16.648Z,86.58
2023-05-05T22:58:19.335Z,87.43
2023-05-05T23:01:22.302Z,87.53
2023-05-05T23:04:25.180Z,87.49
2023-05-05T23:07:28.174Z,86.75
2023-05-05T23:10:31.145Z,86.50
2023-05-05T23:13:34.124Z,87.33
2023-05-05T23:16:36.834Z,87.67
2023-05-05T23:19:40.336Z,88.38
2023-05-05T23:22:42.975Z,87.69
2023-05-05T23:25:46.162Z,87.65
2023-05-05T23:28:48.801Z,87.38
2023-05-05T23:31:52.079Z,87.59
2023-05-05T23:34:54.681Z,87.87
2023-05-05T23:37:57.718Z,87.68
2023-05-05T23:41:00.453Z,87.94
2023-05-05T23:44:03.448Z,88.09
2023-05-05T23:47:06.223Z,88.20
2023-05-05T23:50:09.592Z,88.46
2023-05-05T23:53:41.079Z,89.00
2023-05-05T23:56:51.393Z,89.07
2023-05-05T23:59:54.133Z,89.81
